Time;durP1;ratioP1;P1;durP2;ratioP2;P2;SDS_P1;SDS_P2;PMS_P1;PMS_P2;Temp;Humidity;BMP_temperature;BMP_pressure;BME280_temperature;BME280_humidity;BME280_pressure;Samples;Min_cycle;Max_cycle;Signal;HPM_P1;HPM_P2
2021/01/28 00:00:12;;;;;;;49.60;22.10;;;0.60;99.90;;;;;;5310508;27;20118;-73
2021/01/28 00:02:38;;;;;;;50.33;21.80;;;0.70;99.90;;;;;;5309738;27;20476;-73
2021/01/28 00:05:06;;;;;;;50.93;21.83;;;0.70;99.90;;;;;;5308474;27;20176;-73
2021/01/28 00:07:33;;;;;;;53.33;21.87;;;0.70;99.90;;;;;;5308198;27;20137;-73
2021/01/28 00:10:00;;;;;;;50.50;21.57;;;0.70;99.90;;;;;;5307275;27;20510;-73
2021/01/28 00:12:27;;;;;;;46.67;21.40;;;0.70;99.90;;;;;;5308636;27;20117;-73
2021/01/28 00:14:53;;;;;;;52.70;21.30;;;0.70;99.90;;;;;;5308714;27;20121;-72
2021/01/28 00:17:19;;;;;;;46.27;19.60;;;0.80;99.90;;;;;;5308538;27;20193;-73
2021/01/28 00:19:46;;;;;;;42.07;20.10;;;0.70;99.90;;;;;;5309380;27;20438;-73
2021/01/28 00:22:12;;;;;;;47.20;19.67;;;0.90;99.90;;;;;;5308411;27;20117;-73
2021/01/28 00:24:39;;;;;;;47.23;20.87;;;0.90;99.90;;;;;;5310883;27;20141;-73
2021/01/28 00:27:05;;;;;;;53.63;21.57;;;0.90;99.90;;;;;;5309921;27;20109;-73
2021/01/28 00:29:32;;;;;;;50.77;22.77;;;0.80;99.90;;;;;;5311610;27;20144;-73
2021/01/28 00:31:58;;;;;;;53.37;23.00;;;0.80;99.90;;;;;;5310522;27;20153;-73
2021/01/28 00:34:25;;;;;;;50.70;22.37;;;0.80;99.90;;;;;;5309679;27;20153;-73
2021/01/28 00:36:51;;;;;;;53.87;23.03;;;0.90;99.90;;;;;;5310575;27;20174;-73
2021/01/28 00:39:18;;;;;;;53.10;23.37;;;0.90;99.90;;;;;;5309475;27;20136;-73
2021/01/28 00:41:45;;;;;;;55.53;22.73;;;0.90;99.90;;;;;;5310020;27;20125;-73
2021/01/28 00:44:11;;;;;;;51.10;21.93;;;0.90;99.90;;;;;;5309630;27;20161;-75
2021/01/28 00:46:38;;;;;;;44.50;19.77;;;0.80;99.90;;;;;;5309503;27;20420;-73
2021/01/28 00:49:05;;;;;;;44.97;20.67;;;0.80;99.90;;;;;;5290577;27;20388;-73
2021/01/28 00:51:32;;;;;;;48.97;19.93;;;0.90;99.90;;;;;;5308745;27;20129;-73
2021/01/28 00:53:59;;;;;;;44.97;19.00;;;1.00;99.90;;;;;;5309196;27;20164;-73
2021/01/28 00:56:25;;;;;;;42.07;19.40;;;1.00;99.90;;;;;;5307752;27;20136;-73
2021/01/28 00:58:52;;;;;;;42.87;19.00;;;1.10;99.90;;;;;;5310140;27;20128;-73
2021/01/28 01:01:18;;;;;;;46.03;19.17;;;1.00;99.90;;;;;;5311364;27;20129;-73
2021/01/28 01:03:45;;;;;;;43.67;19.07;;;1.00;99.90;;;;;;5309762;27;20326;-73
2021/01/28 01:06:12;;;;;;;43.73;18.53;;;0.80;99.90;;;;;;5309632;27;20114;-73
2021/01/28 01:08:38;;;;;;;37.47;17.53;;;0.90;99.90;;;;;;5309857;27;20138;-73
2021/01/28 01:11:08;;;;;;;39.90;18.00;;;0.90;99.90;;;;;;5309238;27;20125;-73
2021/01/28 01:13:37;;;;;;;38.97;18.03;;;1.00;99.90;;;;;;5311853;27;20129;-73
2021/01/28 01:16:06;;;;;;;42.07;17.60;;;0.90;99.90;;;;;;5309536;27;20318;-73
2021/01/28 01:18:34;;;;;;;44.43;17.50;;;0.90;99.90;;;;;;5311873;27;20502;-70
2021/01/28 01:21:03;;;;;;;38.73;17.43;;;0.90;99.90;;;;;;5309760;27;20447;-72
2021/01/28 01:23:30;;;;;;;40.07;18.17;;;1.00;99.90;;;;;;5309762;27;20113;-74
2021/01/28 01:25:58;;;;;;;39.93;17.43;;;0.80;99.90;;;;;;5309660;27;20114;-73
2021/01/28 01:28:26;;;;;;;42.30;17.50;;;0.70;99.90;;;;;;5310760;27;20114;-73
2021/01/28 01:30:53;;;;;;;41.23;18.67;;;0.70;99.90;;;;;;5310115;27;20153;-73
2021/01/28 01:33:20;;;;;;;44.70;18.37;;;0.70;99.90;;;;;;5309632;27;20114;-73
2021/01/28 01:35:48;;;;;;;42.07;18.97;;;0.80;99.90;;;;;;5311563;27;20132;-74
2021/01/28 01:38:14;;;;;;;42.03;18.10;;;0.80;99.90;;;;;;5309442;27;20126;-75
2021/01/28 01:40:46;;;;;;;42.90;18.57;;;0.80;99.90;;;;;;5311802;27;20428;-75
2021/01/28 01:43:14;;;;;;;48.47;19.43;;;0.90;99.90;;;;;;5312494;27;20125;-74
2021/01/28 01:45:55;;;;;;;45.50;19.70;;;0.80;99.90;;;;;;5311431;27;20416;-74
2021/01/28 01:48:28;;;;;;;45.13;19.67;;;0.80;99.90;;;;;;5310293;27;20113;-74
2021/01/28 01:51:05;;;;;;;47.77;20.20;;;0.80;99.90;;;;;;5309509;27;20118;-74
2021/01/28 01:53:44;;;;;;;41.73;19.20;;;0.70;99.90;;;;;;5309662;27;20118;-74
2021/01/28 01:56:44;;;;;;;42.93;19.20;;;0.70;99.90;;;;;;5311845;27;20119;-75
2021/01/28 01:59:16;;;;;;;46.93;19.37;;;0.70;99.90;;;;;;5306021;27;20141;-74
2021/01/28 02:01:48;;;;;;;42.13;19.87;;;0.80;99.90;;;;;;5310570;27;20120;-74
2021/01/28 02:04:17;;;;;;;39.47;18.77;;;0.80;99.90;;;;;;5311811;27;20133;-74
2021/01/28 02:06:49;;;;;;;43.03;18.50;;;0.80;99.90;;;;;;5309492;27;20117;-74
2021/01/28 02:09:15;;;;;;;47.97;19.53;;;0.80;99.90;;;;;;5309058;27;20371;-74
2021/01/28 02:11:42;;;;;;;39.30;18.60;;;0.80;99.90;;;;;;5309449;27;20126;-74
2021/01/28 02:14:13;;;;;;;43.27;18.53;;;0.80;99.90;;;;;;5311843;27;20183;-74
2021/01/28 02:16:48;;;;;;;42.13;18.47;;;0.80;99.90;;;;;;5311258;27;20120;-75
2021/01/28 02:19:41;;;;;;;37.87;17.83;;;0.80;99.90;;;;;;5309999;27;20117;-76
2021/01/28 02:22:08;;;;;;;39.80;17.80;;;0.70;99.90;;;;;;5220721;27;20170;-74
2021/01/28 02:24:50;;;;;;;40.57;17.77;;;0.70;99.90;;;;;;5221756;27;20266;-75
2021/01/28 02:27:17;;;;;;;36.03;16.67;;;0.70;99.90;;;;;;5220558;27;20441;-74
2021/01/28 02:29:46;;;;;;;40.23;17.33;;;0.70;99.90;;;;;;5221396;27;20127;-74
2021/01/28 02:32:13;;;;;;;36.87;16.60;;;0.70;99.90;;;;;;5219871;27;20120;-73
2021/01/28 02:34:42;;;;;;;41.27;18.07;;;0.80;99.90;;;;;;5219891;27;20149;-73
2021/01/28 02:37:14;;;;;;;36.57;16.20;;;0.80;99.90;;;;;;5219848;27;20146;-73
2021/01/28 02:39:40;;;;;;;37.70;16.83;;;0.70;99.90;;;;;;5220058;27;20123;-73
2021/01/28 02:42:12;;;;;;;35.93;16.53;;;0.70;99.90;;;;;;5222046;27;20149;-73
2021/01/28 02:44:38;;;;;;;39.07;16.60;;;0.70;99.90;;;;;;5220418;27;20115;-73
2021/01/28 02:47:06;;;;;;;37.77;16.57;;;0.70;99.90;;;;;;5220062;27;20153;-73
2021/01/28 02:49:33;;;;;;;36.87;16.73;;;0.70;99.90;;;;;;5219610;27;20119;-73
2021/01/28 02:51:59;;;;;;;41.20;16.43;;;0.70;99.90;;;;;;5220371;27;20155;-73
2021/01/28 02:54:26;;;;;;;37.90;16.70;;;0.70;99.90;;;;;;5222092;27;20159;-73
2021/01/28 02:56:53;;;;;;;36.13;15.90;;;0.70;99.90;;;;;;5219633;27;20135;-73
2021/01/28 02:59:19;;;;;;;38.23;16.90;;;0.80;99.90;;;;;;5271305;27;20149;-73
2021/01/28 03:01:45;;;;;;;40.50;16.40;;;0.80;99.90;;;;;;5308931;27;20427;-73
2021/01/28 03:04:12;;;;;;;34.73;14.77;;;0.80;99.90;;;;;;5309736;27;20114;-73
2021/01/28 03:06:39;;;;;;;34.13;15.63;;;0.70;99.90;;;;;;5310664;27;20129;-73
2021/01/28 03:09:07;;;;;;;31.67;15.13;;;0.80;99.90;;;;;;5308760;27;20182;-73
2021/01/28 03:11:34;;;;;;;34.80;16.10;;;0.70;99.90;;;;;;5308953;27;20114;-73
2021/01/28 03:14:01;;;;;;;35.47;15.70;;;0.70;99.90;;;;;;5309531;27;20325;-73
2021/01/28 03:16:28;;;;;;;35.73;16.27;;;0.70;99.90;;;;;;5309173;27;20122;-73
2021/01/28 03:18:54;;;;;;;36.57;15.30;;;0.60;99.90;;;;;;5309226;27;20130;-73
2021/01/28 03:21:21;;;;;;;36.97;16.03;;;0.60;99.90;;;;;;5311003;27;20114;-74
2021/01/28 03:23:47;;;;;;;34.00;16.00;;;0.60;99.90;;;;;;5308171;27;20428;-73
2021/01/28 03:26:13;;;;;;;33.90;15.50;;;0.50;99.90;;;;;;5308741;27;20154;-73
2021/01/28 03:28:40;;;;;;;33.77;15.73;;;0.60;99.90;;;;;;5308973;27;20462;-73
2021/01/28 03:31:06;;;;;;;33.20;15.10;;;0.60;99.90;;;;;;5311044;27;20140;-73
2021/01/28 03:33:33;;;;;;;33.73;15.47;;;0.60;99.90;;;;;;5308289;27;20114;-73
2021/01/28 03:35:59;;;;;;;39.80;15.07;;;0.60;99.90;;;;;;5308929;27;20141;-73
2021/01/28 03:38:30;;;;;;;33.13;15.53;;;0.60;99.90;;;;;;5308956;27;20463;-73
2021/01/28 03:40:56;;;;;;;33.90;15.60;;;0.60;99.90;;;;;;5310983;27;20117;-73
2021/01/28 03:43:23;;;;;;;34.73;15.03;;;0.60;99.90;;;;;;5310377;27;20114;-73
2021/01/28 03:45:49;;;;;;;35.80;16.40;;;0.60;99.90;;;;;;5308927;27;20152;-72
2021/01/28 03:48:16;;;;;;;36.13;15.20;;;0.50;99.90;;;;;;5306818;27;20141;-73
2021/01/28 03:50:43;;;;;;;33.80;15.07;;;0.60;99.90;;;;;;5308842;27;20421;-73
2021/01/28 03:53:10;;;;;;;32.77;15.40;;;0.60;99.90;;;;;;5308921;27;20181;-73
2021/01/28 03:55:37;;;;;;;34.43;15.13;;;0.60;99.90;;;;;;5310302;27;20110;-73
2021/01/28 03:58:04;;;;;;;33.63;15.20;;;0.60;99.90;;;;;;5308947;27;20141;-73
2021/01/28 04:00:34;;;;;;;33.23;15.10;;;0.50;99.90;;;;;;5311034;27;20143;-73
2021/01/28 04:03:03;;;;;;;31.97;14.57;;;0.50;99.90;;;;;;5312360;27;20114;-73
2021/01/28 04:05:29;;;;;;;33.63;14.80;;;0.60;99.90;;;;;;5311198;27;20181;-74
2021/01/28 04:07:56;;;;;;;36.50;15.07;;;0.50;99.90;;;;;;5310170;27;20137;-73
2021/01/28 04:10:29;;;;;;;30.90;14.27;;;0.50;99.90;;;;;;5310139;27;20340;-74
2021/01/28 04:12:56;;;;;;;37.17;14.67;;;0.60;99.90;;;;;;5308623;27;20372;-74
2021/01/28 04:15:22;;;;;;;33.27;14.73;;;0.60;99.90;;;;;;5308551;27;20126;-74
2021/01/28 04:17:51;;;;;;;30.07;14.47;;;0.60;99.90;;;;;;5311980;27;20158;-74
2021/01/28 04:20:21;;;;;;;34.00;14.53;;;0.60;99.90;;;;;;5309879;27;20128;-73
2021/01/28 04:22:48;;;;;;;31.33;13.67;;;0.60;99.90;;;;;;5310299;27;20150;-73
2021/01/28 04:25:16;;;;;;;32.40;13.73;;;0.60;99.90;;;;;;5289943;27;20475;-73
2021/01/28 04:27:43;;;;;;;29.50;12.80;;;0.60;99.90;;;;;;5310081;27;20113;-73
2021/01/28 04:30:13;;;;;;;28.23;12.33;;;0.50;99.90;;;;;;5310213;27;20144;-74
2021/01/28 04:32:40;;;;;;;22.80;11.57;;;0.50;99.90;;;;;;5310144;27;20397;-73
2021/01/28 04:35:08;;;;;;;27.63;11.53;;;0.40;99.90;;;;;;5312218;27;20347;-73
2021/01/28 04:37:35;;;;;;;24.97;11.70;;;0.30;99.90;;;;;;5309983;27;20125;-74
2021/01/28 04:40:06;;;;;;;27.70;12.30;;;0.40;99.90;;;;;;5310066;27;20337;-74
2021/01/28 04:42:43;;;;;;;24.30;11.70;;;0.40;99.90;;;;;;5311247;27;20114;-74
2021/01/28 04:45:13;;;;;;;21.27;10.43;;;0.50;99.90;;;;;;5310613;27;20113;-74
2021/01/28 04:47:50;;;;;;;23.67;10.63;;;0.50;99.90;;;;;;5309457;27;20142;-73
2021/01/28 04:50:24;;;;;;;23.23;10.33;;;0.50;99.90;;;;;;5312174;27;20132;-73
2021/01/28 04:52:54;;;;;;;21.43;10.40;;;0.40;99.90;;;;;;5310923;27;20455;-73
2021/01/28 04:55:28;;;;;;;20.90;10.10;;;0.30;99.90;;;;;;5310094;27;20161;-74
2021/01/28 04:57:55;;;;;;;18.57;9.57;;;0.20;99.90;;;;;;5309931;27;20168;-73
2021/01/28 05:00:21;;;;;;;20.80;9.83;;;0.20;99.90;;;;;;5310280;27;20120;-73
2021/01/28 05:02:51;;;;;;;15.93;8.23;;;0.20;99.90;;;;;;5311962;27;20141;-73
2021/01/28 05:05:18;;;;;;;20.33;8.97;;;0.20;99.90;;;;;;5309779;27;20113;-73
2021/01/28 05:07:46;;;;;;;20.23;9.50;;;0.20;99.90;;;;;;5309577;27;20182;-73
2021/01/28 05:10:34;;;;;;;19.67;9.20;;;0.20;99.90;;;;;;5309067;27;20157;-73
2021/01/28 05:13:00;;;;;;;15.57;8.33;;;0.20;99.90;;;;;;5309919;27;20145;-73
2021/01/28 05:15:39;;;;;;;16.17;8.07;;;0.20;99.90;;;;;;5310808;27;20398;-73
2021/01/28 05:18:32;;;;;;;19.43;8.97;;;0.20;99.90;;;;;;5311365;27;20126;-73
2021/01/28 05:21:16;;;;;;;19.53;8.03;;;0.20;99.90;;;;;;5312449;27;20451;-73
2021/01/28 05:23:43;;;;;;;15.87;7.60;;;0.10;99.90;;;;;;5312443;27;20114;-73
2021/01/28 05:26:30;;;;;;;14.50;7.10;;;0.00;99.90;;;;;;5310126;27;20182;-73
2021/01/28 05:29:18;;;;;;;16.83;7.27;;;0.00;99.90;;;;;;5309687;27;20126;-73
2021/01/28 05:31:45;;;;;;;13.93;7.17;;;0.00;99.90;;;;;;5311468;27;20118;-73
2021/01/28 05:34:18;;;;;;;15.40;8.00;;;-0.10;99.90;;;;;;5309553;27;20114;-73
2021/01/28 05:37:00;;;;;;;14.97;7.63;;;-0.10;99.90;;;;;;5311800;27;20377;-74
2021/01/28 05:39:32;;;;;;;15.80;7.17;;;0.00;99.90;;;;;;5311572;27;20117;-73
2021/01/28 05:42:18;;;;;;;13.37;6.43;;;0.00;99.90;;;;;;5309864;27;20124;-73
2021/01/28 05:44:45;;;;;;;11.37;6.10;;;0.00;99.90;;;;;;5311952;27;20136;-73
2021/01/28 05:47:20;;;;;;;12.77;6.47;;;0.00;99.90;;;;;;5310637;27;20130;-73
2021/01/28 05:49:47;;;;;;;11.47;5.50;;;0.00;99.90;;;;;;5311689;27;20127;-73
2021/01/28 05:52:25;;;;;;;11.87;5.43;;;-0.10;99.90;;;;;;5309567;27;20132;-73
2021/01/28 05:55:17;;;;;;;8.70;5.17;;;0.00;99.90;;;;;;5309531;27;20109;-73
2021/01/28 05:58:04;;;;;;;12.33;6.03;;;0.00;99.90;;;;;;5310670;27;20129;-73
2021/01/28 06:00:41;;;;;;;9.70;5.13;;;0.00;99.90;;;;;;5309603;27;20129;-74
2021/01/28 06:03:26;;;;;;;10.33;5.40;;;0.00;99.70;;;;;;5311592;27;20154;-73
2021/01/28 06:06:01;;;;;;;9.60;4.87;;;0.00;99.50;;;;;;5311551;27;20114;-73
2021/01/28 06:08:53;;;;;;;9.87;5.47;;;0.00;99.50;;;;;;5309792;27;20155;-73
2021/01/28 06:11:39;;;;;;;9.50;5.00;;;0.10;99.50;;;;;;5311553;27;20174;-73
2021/01/28 06:14:32;;;;;;;11.17;5.27;;;0.10;99.20;;;;;;5308771;27;20399;-73
2021/01/28 06:17:23;;;;;;;9.53;5.37;;;0.20;98.60;;;;;;5306878;27;20387;-73
2021/01/28 06:19:52;;;;;;;8.33;4.90;;;0.30;98.50;;;;;;5309499;27;20136;-74
2021/01/28 06:22:39;;;;;;;9.87;4.77;;;0.30;98.00;;;;;;5310564;27;20132;-74
2021/01/28 06:25:47;;;;;;;8.17;4.80;;;0.20;97.60;;;;;;5310096;27;20126;-73
2021/01/28 06:28:19;;;;;;;8.67;4.97;;;0.20;97.50;;;;;;5310590;27;20133;-73
2021/01/28 06:31:11;;;;;;;8.73;4.87;;;0.10;97.20;;;;;;5309422;27;20110;-73
2021/01/28 06:33:44;;;;;;;7.60;4.77;;;0.10;97.20;;;;;;5309128;27;20124;-73
2021/01/28 06:36:27;;;;;;;11.87;5.60;;;0.10;97.10;;;;;;5311439;27;20353;-72
2021/01/28 06:38:53;;;;;;;9.17;5.03;;;0.00;96.70;;;;;;5309329;27;20161;-73
2021/01/28 06:41:23;;;;;;;10.50;5.13;;;0.00;96.90;;;;;;5309247;27;20421;-73
2021/01/28 06:44:14;;;;;;;9.40;5.30;;;-0.10;97.00;;;;;;5309900;27;20156;-73
2021/01/28 06:46:50;;;;;;;12.37;5.33;;;0.00;97.50;;;;;;5311630;27;20124;-73
2021/01/28 06:49:22;;;;;;;10.27;5.60;;;0.00;97.40;;;;;;5309132;27;20113;-73
2021/01/28 06:52:17;;;;;;;10.00;5.43;;;0.00;97.80;;;;;;5311537;27;20137;-73
2021/01/28 06:55:04;;;;;;;9.30;5.43;;;-0.10;97.60;;;;;;5311235;27;20152;-73
2021/01/28 06:57:48;;;;;;;9.73;5.47;;;-0.10;97.60;;;;;;5310869;27;20170;-73
2021/01/28 07:00:35;;;;;;;9.03;5.23;;;-0.10;97.40;;;;;;5309514;27;20172;-73
2021/01/28 07:03:29;;;;;;;10.87;5.50;;;-0.10;97.50;;;;;;5308951;27;20159;-73
2021/01/28 07:06:04;;;;;;;11.10;5.80;;;-0.20;97.90;;;;;;5309775;27;20113;-73
2021/01/28 07:08:31;;;;;;;10.30;5.80;;;-0.10;97.70;;;;;;5309264;27;20148;-73
2021/01/28 07:11:01;;;;;;;12.63;6.30;;;-0.10;97.80;;;;;;5308945;27;20339;-73
2021/01/28 07:13:40;;;;;;;11.40;6.47;;;-0.20;98.10;;;;;;5311127;27;20160;-73
2021/01/28 07:16:30;;;;;;;12.37;6.57;;;-0.20;98.30;;;;;;5308215;27;20164;-73
2021/01/28 07:19:04;;;;;;;12.33;6.57;;;-0.20;98.10;;;;;;5309592;27;20132;-73
2021/01/28 07:21:45;;;;;;;13.83;6.60;;;-0.10;98.10;;;;;;5308896;27;20109;-74
2021/01/28 07:24:24;;;;;;;12.03;6.40;;;-0.20;98.00;;;;;;5309912;27;20159;-74
2021/01/28 07:26:57;;;;;;;15.37;7.20;;;0.00;98.10;;;;;;5309092;27;20117;-74
2021/01/28 07:29:46;;;;;;;12.33;6.77;;;0.00;98.40;;;;;;5310001;27;20332;-74
2021/01/28 07:32:35;;;;;;;11.50;6.27;;;-0.10;98.20;;;;;;5300193;27;20152;-73
2021/01/28 07:35:41;;;;;;;11.83;6.57;;;0.10;98.00;;;;;;5310147;27;20124;-73
2021/01/28 07:38:26;;;;;;;12.50;6.70;;;0.10;97.00;;;;;;5240326;27;20476;-76
2021/01/28 07:41:02;;;;;;;11.80;6.27;;;0.10;97.10;;;;;;5241047;27;20281;-73
2021/01/28 07:43:38;;;;;;;14.20;6.60;;;0.10;96.70;;;;;;5242339;27;20455;-73
2021/01/28 07:46:18;;;;;;;13.73;6.80;;;0.20;96.40;;;;;;5239905;27;20140;-73
2021/01/28 07:49:03;;;;;;;12.07;6.40;;;0.20;96.60;;;;;;5241108;27;20129;-74
2021/01/28 07:51:41;;;;;;;16.23;6.47;;;0.20;96.70;;;;;;5242930;27;20133;-73
2021/01/28 07:54:28;;;;;;;14.83;6.50;;;0.70;95.70;;;;;;5240976;27;20137;-73
2021/01/28 07:57:08;;;;;;;12.30;6.27;;;1.20;94.20;;;;;;5230642;27;20174;-73
2021/01/28 07:59:39;;;;;;;12.60;6.47;;;1.30;93.10;;;;;;5241678;27;20114;-73
2021/01/28 08:02:26;;;;;;;12.20;6.00;;;1.40;92.70;;;;;;5242059;27;20464;-75
2021/01/28 08:04:59;;;;;;;14.17;6.63;;;1.70;92.00;;;;;;5242576;27;20407;-74
2021/01/28 08:07:32;;;;;;;12.03;6.00;;;2.10;91.50;;;;;;5241690;27;20484;-73
2021/01/28 08:10:04;;;;;;;13.53;6.40;;;2.30;90.00;;;;;;5240731;27;20145;-73
2021/01/28 08:12:37;;;;;;;12.50;5.83;;;2.40;88.80;;;;;;5245648;27;20115;-73
2021/01/28 08:15:26;;;;;;;13.13;6.43;;;2.60;88.50;;;;;;5308705;27;20118;-73
2021/01/28 08:18:12;;;;;;;10.37;5.63;;;2.80;87.10;;;;;;5309201;27;20153;-74
2021/01/28 08:20:39;;;;;;;14.80;5.93;;;2.80;86.20;;;;;;5308495;27;20113;-74
2021/01/28 08:23:13;;;;;;;12.17;5.80;;;3.10;86.10;;;;;;5309750;27;20173;-74
2021/01/28 08:26:00;;;;;;;14.23;5.70;;;3.20;84.20;;;;;;5310256;27;20459;-74
2021/01/28 08:28:31;;;;;;;12.57;5.83;;;3.30;82.70;;;;;;5310707;27;20468;-74
2021/01/28 08:31:16;;;;;;;10.00;5.03;;;3.30;83.90;;;;;;5309579;27;20114;-74
2021/01/28 08:33:46;;;;;;;10.73;5.50;;;3.30;82.30;;;;;;5310818;27;20366;-74
2021/01/28 08:36:49;;;;;;;11.50;4.90;;;3.20;82.30;;;;;;5306719;27;20158;-75
2021/01/28 08:39:35;;;;;;;9.37;4.70;;;3.30;80.90;;;;;;5306267;27;20197;-74
2021/01/28 08:42:05;;;;;;;9.43;4.93;;;3.30;82.10;;;;;;5290039;27;20148;-75
2021/01/28 08:44:34;;;;;;;11.90;5.27;;;3.60;81.70;;;;;;5308797;27;20114;-75
2021/01/28 08:47:14;;;;;;;9.97;5.23;;;3.70;79.90;;;;;;5309773;27;20137;-73
2021/01/28 08:49:42;;;;;;;9.40;5.10;;;3.90;79.60;;;;;;5310230;27;20114;-73
2021/01/28 08:52:16;;;;;;;9.27;5.50;;;3.80;77.90;;;;;;5309803;27;20109;-73
2021/01/28 08:54:45;;;;;;;8.67;5.03;;;4.10;77.80;;;;;;5311293;27;20130;-73
2021/01/28 08:57:17;;;;;;;12.30;5.20;;;4.40;77.10;;;;;;5311888;27;20132;-73
2021/01/28 09:00:00;;;;;;;10.80;4.73;;;4.70;74.70;;;;;;5310051;27;20317;-73
2021/01/28 09:02:34;;;;;;;8.97;4.90;;;4.50;73.90;;;;;;5311822;27;20113;-73
2021/01/28 09:05:23;;;;;;;8.50;4.73;;;4.20;73.50;;;;;;5290457;27;20151;-73
2021/01/28 09:07:53;;;;;;;9.90;4.43;;;4.00;74.50;;;;;;5310127;27;20166;-73
2021/01/28 09:10:40;;;;;;;9.73;4.80;;;3.40;75.80;;;;;;5309835;27;20143;-73
2021/01/28 09:13:14;;;;;;;11.60;5.20;;;3.40;76.80;;;;;;5310148;27;20140;-73
2021/01/28 09:15:41;;;;;;;9.13;5.17;;;3.10;77.20;;;;;;5311747;27;20126;-73
2021/01/28 09:18:23;;;;;;;10.67;5.20;;;3.00;78.10;;;;;;5310639;27;20171;-73
2021/01/28 09:20:50;;;;;;;12.50;5.20;;;2.90;80.10;;;;;;5310202;27;20125;-74
2021/01/28 09:23:19;;;;;;;12.20;4.87;;;2.90;79.30;;;;;;5309611;27;20148;-73
2021/01/28 09:26:08;;;;;;;10.37;5.17;;;2.90;79.00;;;;;;5309229;27;20141;-73
2021/01/28 09:28:34;;;;;;;11.53;5.20;;;2.90;78.90;;;;;;5310871;27;20129;-73
2021/01/28 09:31:26;;;;;;;13.43;5.60;;;2.60;80.00;;;;;;5309552;27;20176;-73
2021/01/28 09:33:53;;;;;;;10.83;5.57;;;2.60;80.40;;;;;;5311688;27;20125;-73
2021/01/28 09:36:25;;;;;;;11.23;5.43;;;2.70;81.10;;;;;;5309499;27;20110;-73
2021/01/28 09:39:04;;;;;;;10.97;5.57;;;2.90;80.00;;;;;;5309317;27;20245;-72
2021/01/28 09:41:47;;;;;;;12.23;5.87;;;3.00;80.10;;;;;;5311791;27;20117;-71
2021/01/28 09:44:31;;;;;;;9.93;5.20;;;3.00;79.70;;;;;;5309519;27;20122;-72
2021/01/28 09:47:12;;;;;;;11.47;6.10;;;2.90;79.30;;;;;;5310830;27;20114;-74
2021/01/28 09:49:39;;;;;;;12.60;5.57;;;2.90;79.60;;;;;;5309422;27;20136;-74
2021/01/28 09:52:39;;;;;;;10.00;5.73;;;2.80;79.70;;;;;;5309727;27;20113;-73
2021/01/28 09:55:07;;;;;;;12.40;5.80;;;2.70;80.00;;;;;;5310849;27;20110;-72
2021/01/28 09:57:34;;;;;;;10.00;5.70;;;2.80;80.20;;;;;;5311421;27;20121;-71
2021/01/28 10:00:01;;;;;;;15.27;6.33;;;2.90;79.80;;;;;;5311126;27;20388;-73
2021/01/28 10:03:07;;;;;;;11.93;6.13;;;3.00;79.60;;;;;;5308934;27;20161;-71
2021/01/28 10:05:35;;;;;;;13.10;6.20;;;3.00;79.90;;;;;;5311038;27;20132;-73
2021/01/28 10:08:03;;;;;;;12.40;5.67;;;3.10;78.70;;;;;;5309153;27;20167;-73
2021/01/28 10:10:31;;;;;;;11.90;6.10;;;3.10;78.80;;;;;;5311355;27;20133;-72
2021/01/28 10:13:02;;;;;;;12.43;6.17;;;3.20;79.30;;;;;;5309240;27;20113;-73
2021/01/28 10:15:29;;;;;;;16.30;6.10;;;3.40;78.80;;;;;;5311410;27;20428;-73
2021/01/28 10:17:56;;;;;;;12.73;6.33;;;3.20;78.30;;;;;;5311188;27;20159;-71
2021/01/28 10:20:23;;;;;;;12.70;6.07;;;3.10;78.30;;;;;;5309335;27;20110;-72
2021/01/28 10:22:51;;;;;;;10.63;6.10;;;3.00;78.10;;;;;;5309202;27;20167;-71
2021/01/28 10:25:20;;;;;;;15.03;6.53;;;3.20;79.60;;;;;;5311282;27;20150;-73
2021/01/28 10:27:47;;;;;;;15.17;7.60;;;3.30;77.90;;;;;;5308658;27;20129;-72
2021/01/28 10:30:16;;;;;;;14.53;6.43;;;3.10;78.10;;;;;;5309158;27;20129;-71
2021/01/28 10:32:46;;;;;;;14.93;6.60;;;3.10;78.80;;;;;;5309614;27;20114;-71
2021/01/28 10:35:20;;;;;;;11.80;6.73;;;3.30;79.10;;;;;;5309931;27;20464;-71
2021/01/28 10:37:48;;;;;;;14.37;6.80;;;3.40;78.70;;;;;;5309589;27;20155;-71
2021/01/28 10:40:15;;;;;;;15.80;7.03;;;3.50;78.50;;;;;;5308961;27;20133;-71
2021/01/28 10:42:44;;;;;;;12.90;6.77;;;3.60;78.20;;;;;;5309534;27;20128;-71
2021/01/28 10:45:20;;;;;;;16.97;6.83;;;3.80;77.90;;;;;;5309934;27;20175;-70
2021/01/28 10:47:48;;;;;;;12.43;6.87;;;3.80;76.80;;;;;;5308871;27;20121;-70
2021/01/28 10:50:27;;;;;;;14.87;6.87;;;3.70;77.40;;;;;;5311783;27;20118;-70
2021/01/28 10:52:55;;;;;;;13.37;6.80;;;3.50;79.00;;;;;;5308953;27;20131;-71
2021/01/28 10:55:23;;;;;;;11.43;6.77;;;3.60;78.00;;;;;;5309060;27;20130;-70
2021/01/28 10:57:50;;;;;;;13.23;6.70;;;3.40;77.50;;;;;;5310902;27;20129;-70
2021/01/28 11:00:17;;;;;;;12.70;6.60;;;3.30;77.90;;;;;;5310309;27;20114;-71
2021/01/28 11:02:44;;;;;;;14.17;6.97;;;3.20;78.90;;;;;;5310891;27;20185;-71
2021/01/28 11:05:18;;;;;;;13.07;6.90;;;3.20;78.70;;;;;;5308876;27;20141;-72
2021/01/28 11:07:45;;;;;;;13.87;6.90;;;3.30;79.40;;;;;;5308828;27;20183;-70
2021/01/28 11:10:13;;;;;;;14.43;6.83;;;3.30;79.30;;;;;;5308888;27;20129;-71
2021/01/28 11:12:40;;;;;;;14.90;7.30;;;3.50;79.20;;;;;;5310828;27;20346;-69
2021/01/28 11:15:07;;;;;;;14.57;7.10;;;3.30;78.80;;;;;;5308704;27;20133;-70
2021/01/28 11:17:34;;;;;;;13.60;6.80;;;3.30;79.40;;;;;;5309833;27;20141;-70
2021/01/28 11:20:01;;;;;;;13.80;7.00;;;3.40;79.30;;;;;;5309977;27;20160;-70
2021/01/28 11:22:27;;;;;;;16.50;7.37;;;3.20;78.10;;;;;;5310597;27;20110;-70
2021/01/28 11:24:54;;;;;;;14.47;7.33;;;3.10;79.40;;;;;;5309857;27;20166;-70
2021/01/28 11:27:20;;;;;;;15.93;7.07;;;3.10;79.00;;;;;;5310778;27;20199;-71
2021/01/28 11:29:48;;;;;;;15.40;7.40;;;3.00;79.00;;;;;;5308616;27;20113;-71
2021/01/28 11:32:14;;;;;;;16.70;7.70;;;3.00;79.40;;;;;;5310693;27;20484;-71
2021/01/28 11:34:41;;;;;;;17.03;7.73;;;3.20;79.70;;;;;;5310917;27;20145;-70
2021/01/28 11:37:08;;;;;;;16.37;8.00;;;3.20;79.40;;;;;;5288349;27;20476;-70
2021/01/28 11:39:34;;;;;;;15.13;7.80;;;3.30;80.00;;;;;;5310852;27;20130;-72
2021/01/28 11:42:01;;;;;;;16.13;7.80;;;3.40;79.10;;;;;;5309257;27;20213;-73
2021/01/28 11:44:27;;;;;;;17.00;8.10;;;3.50;79.10;;;;;;5308052;27;20513;-70
2021/01/28 11:46:54;;;;;;;15.00;7.43;;;3.40;78.30;;;;;;5308454;27;20365;-71
2021/01/28 11:49:20;;;;;;;18.40;8.30;;;3.40;78.50;;;;;;5308788;27;20142;-70
2021/01/28 11:51:47;;;;;;;14.43;7.43;;;3.20;78.40;;;;;;5308675;27;20130;-70
2021/01/28 11:54:14;;;;;;;17.13;8.07;;;3.20;79.00;;;;;;5308751;27;20133;-70
2021/01/28 11:56:40;;;;;;;14.47;7.63;;;3.20;79.70;;;;;;5308668;27;20390;-71
2021/01/28 11:59:07;;;;;;;17.37;7.87;;;3.10;79.10;;;;;;5310648;27;20122;-69
2021/01/28 12:01:33;;;;;;;17.53;8.30;;;3.10;80.00;;;;;;5310683;27;20109;-70
2021/01/28 12:04:00;;;;;;;15.23;7.50;;;2.70;80.60;;;;;;5307963;27;20145;-71
2021/01/28 12:06:26;;;;;;;16.80;8.50;;;2.60;81.60;;;;;;5308640;27;20173;-71
2021/01/28 12:08:52;;;;;;;18.13;8.20;;;2.60;82.20;;;;;;5306042;27;20200;-71
2021/01/28 12:11:19;;;;;;;17.87;8.37;;;2.80;81.80;;;;;;5309034;27;20327;-72
2021/01/28 12:13:50;;;;;;;17.73;8.30;;;2.80;82.10;;;;;;5308539;27;20444;-72
2021/01/28 12:16:17;;;;;;;21.53;8.63;;;2.90;81.50;;;;;;5306430;27;20160;-71
2021/01/28 12:18:44;;;;;;;15.87;8.17;;;3.00;80.60;;;;;;5306480;27;20152;-71
2021/01/28 12:21:10;;;;;;;16.43;8.43;;;2.90;81.40;;;;;;5307454;27;20153;-71
2021/01/28 12:23:37;;;;;;;17.97;8.77;;;3.10;81.50;;;;;;5307882;27;20167;-70
2021/01/28 12:26:03;;;;;;;19.47;8.63;;;3.30;80.80;;;;;;5307965;27;20122;-71
2021/01/28 12:28:30;;;;;;;17.80;8.70;;;3.50;80.30;;;;;;5310823;27;20110;-69
2021/01/28 12:30:57;;;;;;;18.03;8.63;;;3.50;80.90;;;;;;5309728;27;20114;-70
2021/01/28 12:33:24;;;;;;;21.47;9.13;;;3.50;81.30;;;;;;5311514;27;20125;-70
2021/01/28 12:35:50;;;;;;;18.73;9.30;;;3.50;81.70;;;;;;5310881;27;20167;-70
2021/01/28 12:38:17;;;;;;;17.90;8.57;;;3.30;82.80;;;;;;5309932;27;20161;-70
2021/01/28 12:40:43;;;;;;;18.93;8.83;;;3.10;83.70;;;;;;5311740;27;20133;-70
2021/01/28 12:43:10;;;;;;;16.53;8.63;;;3.00;84.30;;;;;;5309422;27;20185;-70
2021/01/28 12:45:37;;;;;;;17.27;8.77;;;2.70;85.40;;;;;;5310104;27;20125;-72
2021/01/28 12:48:03;;;;;;;18.00;9.07;;;2.80;86.90;;;;;;5310193;27;20114;-72
2021/01/28 12:50:30;;;;;;;15.97;8.90;;;2.80;86.10;;;;;;5310424;27;20141;-70
2021/01/28 12:52:57;;;;;;;19.27;8.97;;;2.70;86.40;;;;;;5309515;27;20113;-70
2021/01/28 12:55:24;;;;;;;18.33;9.37;;;2.60;87.00;;;;;;5311728;27;20113;-72
2021/01/28 12:57:51;;;;;;;20.00;9.60;;;2.70;87.30;;;;;;5290293;27;20176;-70
2021/01/28 13:00:20;;;;;;;19.13;9.07;;;2.70;87.40;;;;;;5311664;27;20109;-72
2021/01/28 13:02:48;;;;;;;20.37;9.63;;;2.60;87.60;;;;;;5309877;27;20113;-68
2021/01/28 13:05:16;;;;;;;19.03;9.90;;;2.40;88.30;;;;;;5309449;27;20110;-69
2021/01/28 13:07:42;;;;;;;22.80;10.10;;;2.50;88.60;;;;;;5308710;27;20154;-69